Time;durP1;ratioP1;P1;durP2;ratioP2;P2;SDS_P1;SDS_P2;PMS_P1;PMS_P2;Temp;Humidity;BMP_temperature;BMP_pressure;BME280_temperature;BME280_humidity;BME280_pressure;Samples;Min_cycle;Max_cycle;Signal;HPM_P1;HPM_P2
2022/07/26 00:01:30;;;;;;;11.93;3.10;;;17.70;99.90;;;;;;4998421;28;20049;-46
2022/07/26 00:03:56;;;;;;;12.93;2.50;;;17.50;99.90;;;;;;4978759;28;20639;-45
2022/07/26 00:06:24;;;;;;;15.05;2.95;;;17.40;99.90;;;;;;4996377;28;20080;-45
2022/07/26 00:08:52;;;;;;;12.48;2.50;;;17.40;99.90;;;;;;4995627;28;20084;-44
2022/07/26 00:11:18;;;;;;;11.45;2.35;;;17.70;99.90;;;;;;4995266;28;20509;-46
2022/07/26 00:13:44;;;;;;;10.88;2.40;;;17.80;99.90;;;;;;4998192;28;20593;-44
2022/07/26 00:16:10;;;;;;;7.20;2.35;;;17.60;99.90;;;;;;4996532;28;20045;-47
2022/07/26 00:18:36;;;;;;;17.02;3.10;;;19.70;99.90;;;;;;4996739;28;20038;-45
2022/07/26 00:21:02;;;;;;;15.63;3.30;;;17.60;99.90;;;;;;4996119;28;20462;-44
2022/07/26 00:23:28;;;;;;;15.10;2.67;;;17.70;99.90;;;;;;4997128;28;20041;-44
2022/07/26 00:25:54;;;;;;;14.25;3.72;;;17.50;99.90;;;;;;4996459;28;20041;-44
2022/07/26 00:28:20;;;;;;;13.57;3.40;;;17.30;99.90;;;;;;4996849;28;20046;-46
2022/07/26 00:30:46;;;;;;;10.02;2.85;;;17.40;99.90;;;;;;4997946;28;20041;-43
2022/07/26 00:33:13;;;;;;;16.77;2.90;;;17.30;99.90;;;;;;4997035;28;20056;-48
2022/07/26 00:35:39;;;;;;;16.85;3.05;;;17.30;99.90;;;;;;4996372;28;20033;-45
2022/07/26 00:38:06;;;;;;;15.90;3.33;;;17.40;99.90;;;;;;4995672;28;20049;-46
2022/07/26 00:40:34;;;;;;;13.00;2.75;;;18.80;99.90;;;;;;4995837;28;20187;-45
2022/07/26 00:42:59;;;;;;;15.60;3.08;;;17.30;99.90;;;;;;4995076;28;20514;-45
2022/07/26 00:45:25;;;;;;;11.85;2.75;;;17.40;99.90;;;;;;4996988;28;20096;-44
2022/07/26 00:47:51;;;;;;;11.80;2.63;;;17.30;99.90;;;;;;4995777;28;20038;-45
2022/07/26 00:50:18;;;;;;;13.18;3.13;;;17.50;99.90;;;;;;4995272;28;20034;-44
2022/07/26 00:52:47;;;;;;;13.88;3.17;;;18.30;99.90;;;;;;4998317;28;20920;-45
2022/07/26 00:55:14;;;;;;;13.07;3.00;;;17.40;99.90;;;;;;4996165;28;20038;-45
2022/07/26 00:57:41;;;;;;;10.77;2.72;;;17.40;99.90;;;;;;4995642;28;20038;-49
2022/07/26 01:00:11;;;;;;;12.45;2.47;;;17.50;99.90;;;;;;4995151;28;20042;-46
2022/07/26 01:02:37;;;;;;;6.93;2.55;;;17.70;99.90;;;;;;4994770;28;20046;-45
2022/07/26 01:05:03;;;;;;;8.55;2.25;;;17.40;99.90;;;;;;4995929;28;20030;-44
2022/07/26 01:07:29;;;;;;;9.65;2.47;;;17.50;99.90;;;;;;4996646;28;20483;-46
2022/07/26 01:09:55;;;;;;;8.43;2.72;;;18.50;99.90;;;;;;4993973;28;20522;-48
2022/07/26 01:12:24;;;;;;;7.97;2.08;;;19.60;99.90;;;;;;4997048;28;20081;-48
2022/07/26 01:14:49;;;;;;;9.85;2.45;;;17.40;99.90;;;;;;4997518;28;20050;-47
2022/07/26 01:17:16;;;;;;;8.30;2.90;;;17.90;99.90;;;;;;4976909;28;20037;-44
2022/07/26 01:19:41;;;;;;;8.80;2.35;;;17.80;99.90;;;;;;4994999;28;20034;-43
2022/07/26 01:22:07;;;;;;;8.25;2.72;;;17.30;99.90;;;;;;4993735;28;20099;-44
2022/07/26 01:24:33;;;;;;;9.35;2.40;;;17.50;99.90;;;;;;4996382;28;20052;-44
2022/07/26 01:26:59;;;;;;;5.95;2.10;;;17.40;99.90;;;;;;4998333;28;20038;-46
2022/07/26 01:29:25;;;;;;;10.77;2.10;;;18.20;99.90;;;;;;4997816;28;20510;-48
2022/07/26 01:31:51;;;;;;;8.45;2.45;;;17.60;99.90;;;;;;4994262;28;20045;-45
2022/07/26 01:34:18;;;;;;;7.22;2.33;;;18.10;99.90;;;;;;4996843;28;20092;-45
2022/07/26 01:36:43;;;;;;;9.90;2.70;;;18.90;99.90;;;;;;4997156;28;20045;-45
2022/07/26 01:39:11;;;;;;;6.95;2.40;;;19.00;99.90;;;;;;4994908;28;20569;-47
2022/07/26 01:41:36;;;;;;;10.70;2.60;;;17.30;99.90;;;;;;4994994;28;20107;-44
2022/07/26 01:44:02;;;;;;;7.05;2.47;;;19.50;99.90;;;;;;4997555;28;20050;-45
2022/07/26 01:46:30;;;;;;;7.68;2.70;;;17.50;99.90;;;;;;4994812;28;20042;-46
2022/07/26 01:48:55;;;;;;;7.40;2.45;;;17.80;99.90;;;;;;4995380;28;20037;-48
2022/07/26 01:51:21;;;;;;;7.93;2.50;;;19.60;99.90;;;;;;4994441;28;20521;-46
2022/07/26 01:53:48;;;;;;;8.98;2.53;;;17.70;99.90;;;;;;4994304;28;20140;-47
2022/07/26 01:56:14;;;;;;;6.53;2.67;;;19.20;99.90;;;;;;4995345;28;20085;-44
2022/07/26 01:58:40;;;;;;;7.68;2.72;;;17.50;99.90;;;;;;4997018;28;20506;-47
2022/07/26 02:01:07;;;;;;;7.53;2.90;;;17.50;99.90;;;;;;4996164;28;20057;-44
2022/07/26 02:03:35;;;;;;;10.13;2.55;;;18.10;99.90;;;;;;4992633;28;20045;-46
2022/07/26 02:06:01;;;;;;;11.13;2.58;;;17.50;99.90;;;;;;4998021;28;20100;-47
2022/07/26 02:08:27;;;;;;;9.38;3.67;;;19.30;99.90;;;;;;4996024;28;20494;-48
2022/07/26 02:10:59;;;;;;;8.13;2.95;;;17.50;99.90;;;;;;4995509;28;20034;-48
2022/07/26 02:13:25;;;;;;;11.75;3.00;;;17.70;99.90;;;;;;4995271;28;20816;-45
2022/07/26 02:15:51;;;;;;;6.57;2.75;;;18.20;99.90;;;;;;4995283;28;20038;-45
2022/07/26 02:18:16;;;;;;;8.88;2.75;;;17.40;99.90;;;;;;4994584;28;20044;-48
2022/07/26 02:20:42;;;;;;;6.20;2.42;;;18.20;99.90;;;;;;4996981;28;20042;-44
2022/07/26 02:23:08;;;;;;;5.63;1.67;;;17.60;99.90;;;;;;5000057;28;20050;-49
2022/07/26 02:25:37;;;;;;;6.25;1.50;;;17.30;99.90;;;;;;4999591;28;20096;-44
2022/07/26 02:28:03;;;;;;;5.57;1.40;;;18.50;99.90;;;;;;4997954;28;20073;-42
2022/07/26 02:30:29;;;;;;;7.40;1.60;;;17.00;99.90;;;;;;4997717;28;20506;-45
2022/07/26 02:32:54;;;;;;;7.75;1.67;;;17.20;99.90;;;;;;4996790;28;20061;-45
2022/07/26 02:35:22;;;;;;;8.40;2.00;;;19.10;99.90;;;;;;4997908;28;20160;-46
2022/07/26 02:37:48;;;;;;;8.77;2.10;;;17.20;99.90;;;;;;4998081;28;20030;-42
2022/07/26 02:40:13;;;;;;;9.98;2.60;;;17.00;99.90;;;;;;4999646;28;20044;-42
2022/07/26 02:42:41;;;;;;;11.77;2.15;;;16.90;99.90;;;;;;4997122;28;20034;-45
2022/07/26 02:45:07;;;;;;;8.32;1.70;;;17.60;99.90;;;;;;4997905;28;20741;-42
2022/07/26 02:47:33;;;;;;;5.82;1.80;;;16.90;99.90;;;;;;5001697;28;20073;-44
2022/07/26 02:49:59;;;;;;;11.68;2.42;;;17.90;99.90;;;;;;4999276;28;20153;-42
2022/07/26 02:52:24;;;;;;;8.88;2.20;;;16.60;99.90;;;;;;4997575;28;20057;-41
2022/07/26 02:54:50;;;;;;;6.35;2.45;;;17.90;99.90;;;;;;4997342;28;20494;-46
2022/07/26 02:57:16;;;;;;;7.97;1.92;;;17.50;99.90;;;;;;4997915;28;20037;-45
2022/07/26 02:59:41;;;;;;;10.45;2.03;;;18.00;99.90;;;;;;4997456;28;20124;-42
2022/07/26 03:02:07;;;;;;;11.40;2.30;;;16.60;99.90;;;;;;4997893;28;20642;-46
2022/07/26 03:04:33;;;;;;;6.20;1.83;;;16.60;99.90;;;;;;4995742;28;20060;-45
2022/07/26 03:06:59;;;;;;;9.88;2.38;;;17.40;99.90;;;;;;4997183;28;20041;-46
2022/07/26 03:09:25;;;;;;;8.02;1.88;;;16.80;99.90;;;;;;4998123;28;20046;-41
2022/07/26 03:11:50;;;;;;;7.65;2.38;;;16.60;99.90;;;;;;4998828;28;20128;-43
2022/07/26 03:14:16;;;;;;;8.88;1.95;;;16.50;99.90;;;;;;4999281;28;20069;-41
2022/07/26 03:16:41;;;;;;;7.88;2.00;;;18.70;99.90;;;;;;4996834;28;20052;-43
2022/07/26 03:19:07;;;;;;;9.63;2.05;;;16.80;99.90;;;;;;4996683;28;20060;-42
2022/07/26 03:21:33;;;;;;;9.20;1.88;;;16.60;99.90;;;;;;4998852;28;20054;-44
2022/07/26 03:23:58;;;;;;;13.18;2.42;;;16.60;99.90;;;;;;4998650;28;20029;-43
2022/07/26 03:26:24;;;;;;;12.38;1.90;;;16.60;99.90;;;;;;4996578;28;20049;-45
2022/07/26 03:28:52;;;;;;;11.23;1.70;;;16.60;99.90;;;;;;4996555;28;20208;-44
2022/07/26 03:31:18;;;;;;;10.82;1.80;;;17.60;99.90;;;;;;4995342;28;20065;-44
2022/07/26 03:33:44;;;;;;;12.85;2.22;;;18.40;99.90;;;;;;5001668;28;20088;-47
2022/07/26 03:36:09;;;;;;;9.52;1.75;;;18.30;99.90;;;;;;4997896;28;20042;-47
2022/07/26 03:38:35;;;;;;;8.63;1.40;;;16.80;99.90;;;;;;4997123;28;20092;-41
2022/07/26 03:41:01;;;;;;;9.45;1.65;;;16.30;99.90;;;;;;4997191;28;20080;-47
2022/07/26 03:43:30;;;;;;;10.35;1.50;;;16.40;99.90;;;;;;4996635;28;20137;-47
2022/07/26 03:45:56;;;;;;;11.55;1.80;;;16.40;99.90;;;;;;4998652;28;20050;-46
2022/07/26 03:48:22;;;;;;;9.43;1.48;;;16.30;99.90;;;;;;4996753;28;20709;-44
2022/07/26 03:50:47;;;;;;;7.60;1.60;;;16.30;99.90;;;;;;4999364;28;20065;-45
2022/07/26 03:53:13;;;;;;;7.63;2.53;;;18.50;99.90;;;;;;4999532;28;20042;-47
2022/07/26 03:58:23;;;;;;;12.38;2.15;;;16.30;99.90;;;;;;4997752;28;20137;-44
2022/07/26 04:00:49;;;;;;;9.82;1.33;;;16.50;99.90;;;;;;4997947;28;20653;-45
2022/07/26 04:03:14;;;;;;;6.60;1.20;;;16.30;99.90;;;;;;4995936;28;20782;-46
2022/07/26 04:05:40;;;;;;;11.15;1.38;;;16.30;99.90;;;;;;4996856;28;20063;-46
2022/07/26 04:08:06;;;;;;;7.32;1.20;;;16.20;99.90;;;;;;4997084;28;20139;-43
2022/07/26 04:10:33;;;;;;;7.50;1.08;;;16.20;99.90;;;;;;4977959;28;20050;-45
2022/07/26 04:12:59;;;;;;;6.75;1.10;;;16.20;99.90;;;;;;4995702;28;20518;-42
2022/07/26 04:15:25;;;;;;;4.47;1.05;;;16.20;99.90;;;;;;4997685;28;20057;-46
2022/07/26 04:17:50;;;;;;;7.43;1.55;;;17.40;99.90;;;;;;4996382;28;20048;-44
2022/07/26 04:20:18;;;;;;;10.65;1.27;;;16.10;99.90;;;;;;4995980;28;20065;-47
2022/07/26 04:22:44;;;;;;;7.22;1.50;;;17.60;99.90;;;;;;4978117;28;20251;-45
2022/07/26 04:25:09;;;;;;;9.20;1.27;;;16.20;99.90;;;;;;4995070;28;20668;-44
2022/07/26 04:27:37;;;;;;;6.43;1.00;;;16.20;99.90;;;;;;4979338;28;20030;-45
2022/07/26 04:30:05;;;;;;;5.68;0.98;;;18.00;99.90;;;;;;4996885;28;20068;-46
2022/07/26 04:32:30;;;;;;;9.82;1.65;;;16.20;99.90;;;;;;4996399;28;20343;-47
2022/07/26 04:34:58;;;;;;;6.32;0.90;;;16.10;99.90;;;;;;4997399;28;20463;-46
2022/07/26 04:37:24;;;;;;;8.98;1.33;;;16.80;99.90;;;;;;4998123;28;20050;-46
2022/07/26 04:39:50;;;;;;;10.63;1.10;;;18.50;99.90;;;;;;4996093;28;20396;-45
2022/07/26 04:42:15;;;;;;;5.95;0.85;;;17.00;99.90;;;;;;4996157;28;20057;-43
2022/07/26 04:44:41;;;;;;;6.38;1.00;;;16.30;99.90;;;;;;4994653;28;20036;-43
2022/07/26 04:47:07;;;;;;;7.35;1.33;;;16.30;99.90;;;;;;4996571;28;20042;-42
2022/07/26 04:49:32;;;;;;;7.32;1.25;;;16.20;99.90;;;;;;4996977;28;20042;-46
2022/07/26 04:51:58;;;;;;;5.90;0.82;;;16.80;99.90;;;;;;4998830;28;20044;-46
2022/07/26 04:54:24;;;;;;;6.93;1.15;;;16.60;99.90;;;;;;4996449;28;20069;-44
2022/07/26 04:56:49;;;;;;;6.63;0.95;;;16.20;99.90;;;;;;4996136;28;20042;-46
2022/07/26 04:59:17;;;;;;;9.30;1.33;;;16.30;99.90;;;;;;4996130;28;20041;-45
2022/07/26 05:01:43;;;;;;;7.15;1.08;;;17.20;99.90;;;;;;4995838;28;20100;-43
2022/07/26 05:04:09;;;;;;;4.85;1.00;;;16.20;99.90;;;;;;4996622;28;20034;-45
2022/07/26 05:06:36;;;;;;;5.13;0.88;;;17.70;99.90;;;;;;4979030;28;20052;-43
2022/07/26 05:09:02;;;;;;;7.97;0.90;;;16.30;99.90;;;;;;4996609;28;20144;-42
2022/07/26 05:11:28;;;;;;;5.43;1.02;;;17.70;99.90;;;;;;4995160;28;20506;-44
2022/07/26 05:13:54;;;;;;;6.82;1.08;;;18.20;99.90;;;;;;4996348;28;20145;-46
2022/07/26 05:16:20;;;;;;;8.18;0.90;;;16.10;99.90;;;;;;4996416;28;20514;-44
2022/07/26 05:18:45;;;;;;;10.10;1.58;;;16.00;99.90;;;;;;4994961;28;20033;-44
2022/07/26 05:21:11;;;;;;;9.07;1.23;;;15.80;99.90;;;;;;4994859;28;20125;-46
2022/07/26 05:23:37;;;;;;;11.23;1.25;;;15.80;99.90;;;;;;4996192;28;20044;-43
2022/07/26 05:26:02;;;;;;;6.05;0.85;;;17.80;99.90;;;;;;4994847;28;20117;-45
2022/07/26 05:28:30;;;;;;;5.93;1.20;;;15.80;99.90;;;;;;4994125;28;20137;-44
2022/07/26 05:30:56;;;;;;;6.88;1.00;;;16.10;99.90;;;;;;4994972;28;20037;-42
2022/07/26 05:33:22;;;;;;;10.32;1.30;;;17.90;99.90;;;;;;4994007;28;20064;-47
2022/07/26 05:35:47;;;;;;;8.45;1.10;;;16.90;99.90;;;;;;4994823;28;20050;-44
2022/07/26 05:38:13;;;;;;;6.05;0.85;;;18.10;99.90;;;;;;4995454;28;20073;-44
2022/07/26 05:40:39;;;;;;;5.07;1.13;;;16.30;99.90;;;;;;4994352;28;20041;-46
2022/07/26 05:43:04;;;;;;;10.73;1.40;;;18.10;99.90;;;;;;4994377;28;20192;-47
2022/07/26 05:45:30;;;;;;;5.55;1.08;;;16.00;99.90;;;;;;4994944;28;20073;-46
2022/07/26 05:47:56;;;;;;;11.13;1.05;;;16.10;99.90;;;;;;4994062;28;20034;-45
2022/07/26 05:50:22;;;;;;;8.18;1.15;;;16.30;99.90;;;;;;4980641;28;20049;-45
2022/07/26 05:52:47;;;;;;;5.82;0.90;;;18.10;99.90;;;;;;4995349;28;20096;-44
2022/07/26 05:55:13;;;;;;;6.00;1.23;;;14.90;99.90;;;;;;4994527;28;20129;-46
2022/07/26 05:57:40;;;;;;;7.78;1.10;;;17.60;99.90;;;;;;4998482;28;20076;-45
2022/07/26 06:00:09;;;;;;;3.88;0.80;;;16.10;99.90;;;;;;4999032;28;20115;-45
2022/07/26 06:02:34;;;;;;;7.57;0.95;;;16.10;99.90;;;;;;4998303;28;20597;-44
2022/07/26 06:05:00;;;;;;;6.55;1.23;;;16.60;99.90;;;;;;4999615;28;20275;-44
2022/07/26 06:07:26;;;;;;;6.07;0.85;;;17.00;99.90;;;;;;5000658;28;20038;-45
2022/07/26 06:09:51;;;;;;;10.27;1.48;;;16.90;99.90;;;;;;4998644;28;20406;-44
2022/07/26 06:12:17;;;;;;;7.35;0.90;;;16.00;99.90;;;;;;5000019;28;20046;-45
2022/07/26 06:14:46;;;;;;;11.27;1.33;;;16.40;99.90;;;;;;4979379;28;20053;-45
2022/07/26 06:17:12;;;;;;;10.65;1.05;;;16.20;99.90;;;;;;4997844;28;20317;-47
2022/07/26 06:19:37;;;;;;;7.78;1.10;;;16.30;99.90;;;;;;4982066;28;20053;-46
2022/07/26 06:22:03;;;;;;;7.13;0.88;;;17.40;99.90;;;;;;4999583;28;20694;-45
2022/07/26 06:24:29;;;;;;;8.55;1.25;;;16.30;99.90;;;;;;4981378;28;20050;-47
2022/07/26 06:26:56;;;;;;;6.50;0.80;;;16.80;99.90;;;;;;4998446;28;20049;-48
2022/07/26 06:29:22;;;;;;;7.80;0.93;;;16.80;99.90;;;;;;4997857;28;20042;-46
2022/07/26 06:31:49;;;;;;;11.88;1.77;;;16.60;99.90;;;;;;4997326;28;20091;-43
2022/07/26 06:34:15;;;;;;;8.25;1.20;;;16.80;99.90;;;;;;5000800;28;20054;-42
2022/07/26 06:36:41;;;;;;;7.22;1.17;;;16.70;99.90;;;;;;4998738;28;20041;-44
2022/07/26 06:39:08;;;;;;;5.30;0.85;;;16.80;99.90;;;;;;4997629;28;20049;-46
2022/07/26 06:41:33;;;;;;;7.35;1.30;;;18.80;99.90;;;;;;4997147;28;20088;-47
2022/07/26 06:43:59;;;;;;;6.75;1.23;;;16.80;99.90;;;;;;4996959;28;20116;-42
2022/07/26 06:46:25;;;;;;;7.47;0.70;;;16.80;99.90;;;;;;4998956;28;20045;-44
2022/07/26 06:48:50;;;;;;;5.80;0.95;;;16.60;99.90;;;;;;4997624;28;20406;-46
2022/07/26 06:51:16;;;;;;;7.45;0.82;;;16.70;99.90;;;;;;4999237;28;20583;-48
2022/07/26 06:53:42;;;;;;;6.43;0.80;;;16.50;99.90;;;;;;4997404;28;20669;-44
2022/07/26 06:56:08;;;;;;;5.38;0.75;;;17.10;99.80;;;;;;4998170;28;20048;-45
2022/07/26 06:58:35;;;;;;;3.72;0.57;;;17.00;99.90;;;;;;4997666;28;20133;-43
2022/07/26 07:01:01;;;;;;;6.22;1.20;;;16.50;99.90;;;;;;4996967;28;20037;-43
2022/07/26 07:03:26;;;;;;;7.10;0.90;;;16.40;99.90;;;;;;4997757;28;20034;-45
2022/07/26 07:05:54;;;;;;;8.82;0.98;;;16.70;99.60;;;;;;4999206;28;20053;-46
2022/07/26 07:08:21;;;;;;;4.28;0.90;;;18.90;99.90;;;;;;4997644;28;20077;-47
2022/07/26 07:10:47;;;;;;;7.55;0.93;;;17.10;98.30;;;;;;4997998;28;20042;-44
2022/07/26 07:13:13;;;;;;;8.55;1.15;;;17.20;96.60;;;;;;4998582;28;20988;-45
2022/07/26 07:15:38;;;;;;;7.82;0.90;;;19.00;95.00;;;;;;4996650;28;20328;-45
2022/07/26 07:18:04;;;;;;;7.93;1.25;;;17.20;96.50;;;;;;4997544;28;20049;-44
2022/07/26 07:20:33;;;;;;;7.00;1.00;;;17.40;96.50;;;;;;4996635;28;20124;-45
2022/07/26 07:22:59;;;;;;;8.07;1.10;;;17.30;95.70;;;;;;4996326;28;20120;-44
2022/07/26 07:25:24;;;;;;;5.75;1.10;;;17.60;94.00;;;;;;4996869;28;20927;-45
2022/07/26 07:27:50;;;;;;;6.82;0.95;;;19.40;93.20;;;;;;4998324;28;20044;-43
2022/07/26 07:30:16;;;;;;;10.95;1.35;;;18.10;92.40;;;;;;4996757;28;20398;-44
2022/07/26 07:32:42;;;;;;;9.27;1.15;;;17.30;92.10;;;;;;4996811;28;20065;-44
2022/07/26 07:35:08;;;;;;;6.05;0.90;;;17.80;91.00;;;;;;4999095;28;20108;-45
2022/07/26 07:37:34;;;;;;;7.68;1.02;;;17.80;90.90;;;;;;4997872;28;20030;-45
2022/07/26 07:40:04;;;;;;;6.95;0.95;;;17.50;92.10;;;;;;4978368;28;20137;-44
2022/07/26 07:42:29;;;;;;;11.65;1.25;;;18.00;91.10;;;;;;4999394;28;20042;-45
2022/07/26 07:44:55;;;;;;;9.40;1.40;;;18.20;87.30;;;;;;4996463;28;20108;-45
2022/07/26 07:47:21;;;;;;;12.18;1.92;;;18.00;77.70;;;;;;4997265;28;20068;-47
2022/07/26 07:49:48;;;;;;;10.90;1.65;;;18.00;71.20;;;;;;4999235;28;20044;-46
2022/07/26 07:52:14;;;;;;;10.48;1.92;;;18.50;78.20;;;;;;4996757;28;20046;-47
2022/07/26 07:54:40;;;;;;;16.65;2.33;;;17.70;85.70;;;;;;4996299;28;20038;-42
2022/07/26 07:57:05;;;;;;;8.52;1.27;;;17.20;91.20;;;;;;4995814;28;20049;-43
2022/07/26 07:59:31;;;;;;;12.68;2.05;;;19.30;93.50;;;;;;4996484;28;20100;-45
2022/07/26 08:01:57;;;;;;;8.57;1.30;;;17.40;94.30;;;;;;4995200;28;20038;-46
2022/07/26 08:04:23;;;;;;;7.97;1.42;;;16.20;95.00;;;;;;4997689;28;20088;-45
2022/07/26 08:06:49;;;;;;;10.80;1.27;;;18.40;95.90;;;;;;4996507;28;20458;-44
2022/07/26 08:09:14;;;;;;;9.23;1.58;;;17.60;96.80;;;;;;4999076;28;20042;-44
2022/07/26 08:11:42;;;;;;;7.32;1.10;;;17.70;95.50;;;;;;4995479;28;20515;-43
2022/07/26 08:14:08;;;;;;;6.50;1.10;;;17.80;93.00;;;;;;4995432;28;20104;-47
2022/07/26 08:16:33;;;;;;;10.57;1.42;;;18.50;92.30;;;;;;4978025;28;21000;-49
2022/07/26 08:19:03;;;;;;;13.23;1.83;;;20.60;84.40;;;;;;4997459;28;20042;-45
2022/07/26 08:21:28;;;;;;;8.60;1.40;;;18.70;74.70;;;;;;4996899;28;20594;-43
2022/07/26 08:23:54;;;;;;;11.10;2.30;;;18.50;58.60;;;;;;4995637;28;20117;-42
2022/07/26 08:26:20;;;;;;;11.43;1.92;;;18.30;57.40;;;;;;4994545;28;20061;-45
2022/07/26 08:28:45;;;;;;;11.05;1.42;;;17.90;61.90;;;;;;4993638;28;20134;-49
2022/07/26 08:31:11;;;;;;;8.23;1.48;;;18.00;68.60;;;;;;4998478;28;20042;-43
2022/07/26 08:33:40;;;;;;;11.98;1.65;;;18.10;75.20;;;;;;4995207;28;20049;-45
2022/07/26 08:36:06;;;;;;;9.20;1.33;;;20.20;74.20;;;;;;4995199;28;20072;-42
2022/07/26 08:38:31;;;;;;;6.72;1.20;;;18.10;67.90;;;;;;4994807;28;20062;-43
2022/07/26 08:40:58;;;;;;;6.38;1.60;;;18.30;58.70;;;;;;4997384;28;20100;-46
2022/07/26 08:43:24;;;;;;;8.48;1.27;;;20.10;63.90;;;;;;4996060;28;20046;-42
2022/07/26 08:45:50;;;;;;;8.70;1.65;;;19.70;46.70;;;;;;4995363;28;20034;-45
2022/07/26 08:48:17;;;;;;;8.10;1.33;;;19.00;24.70;;;;;;4997241;28;20054;-43
2022/07/26 08:50:43;;;;;;;9.98;1.70;;;18.70;31.70;;;;;;4996022;28;20046;-46
2022/07/26 08:53:10;;;;;;;11.88;1.95;;;17.80;34.20;;;;;;4996495;28;20410;-47
2022/07/26 08:55:37;;;;;;;11.45;2.22;;;17.60;46.10;;;;;;4995502;28;20042;-47
2022/07/26 08:58:03;;;;;;;14.55;2.05;;;17.30;57.80;;;;;;4995870;28;20308;-45
2022/07/26 09:00:30;;;;;;;14.25;2.25;;;17.40;72.20;;;;;;4995657;28;20044;-44
2022/07/26 09:03:01;;;;;;;13.98;2.10;;;18.90;82.60;;;;;;4996197;28;20116;-44
2022/07/26 09:05:34;;;;;;;13.00;1.98;;;17.10;88.70;;;;;;4978131;28;20046;-47
2022/07/26 09:08:22;;;;;;;9.30;1.98;;;16.70;90.00;;;;;;4995965;28;20077;-44
2022/07/26 09:10:48;;;;;;;13.98;2.30;;;16.80;90.10;;;;;;4994953;28;20136;-42
2022/07/26 09:13:16;;;;;;;10.85;2.13;;;17.00;91.10;;;;;;4994035;28;20033;-43
2022/07/26 09:15:42;;;;;;;16.88;2.70;;;18.40;91.70;;;;;;4994544;28;20124;-44
2022/07/26 09:18:25;;;;;;;15.00;2.53;;;17.60;90.60;;;;;;4995760;28;20037;-47
2022/07/26 09:20:51;;;;;;;18.05;2.38;;;17.60;89.80;;;;;;4994692;28;20132;-43
2022/07/26 09:23:16;;;;;;;14.98;2.10;;;20.00;85.40;;;;;;4994668;28;20045;-48
2022/07/26 09:25:44;;;;;;;11.57;2.15;;;17.80;65.30;;;;;;4976469;28;20045;-43
2022/07/26 09:28:25;;;;;;;13.80;2.33;;;18.00;57.70;;;;;;4995309;28;20613;-46
2022/07/26 09:30:59;;;;;;;14.13;2.05;;;18.00;36.10;;;;;;4994245;28;20042;-43
2022/07/26 09:33:25;;;;;;;11.52;2.33;;;18.10;34.50;;;;;;4993888;28;20626;-46
2022/07/26 09:36:05;;;;;;;15.13;2.35;;;18.20;29.20;;;;;;4993995;28;20763;-43
2022/07/26 09:38:52;;;;;;;17.13;2.10;;;18.50;24.40;;;;;;5001112;28;20041;-43
2022/07/26 09:41:23;;;;;;;13.52;2.40;;;18.60;18.30;;;;;;4975662;28;20045;-45
2022/07/26 09:43:50;;;;;;;20.17;3.58;;;19.50;23.30;;;;;;4997262;28;20041;-44
2022/07/26 09:46:16;;;;;;;11.48;2.05;;;18.70;1.00;;;;;;4994196;28;20069;-44
2022/07/26 09:48:42;;;;;;;13.75;1.95;;;18.50;1.00;;;;;;4997315;28;20189;-43
2022/07/26 09:51:09;;;;;;;12.00;2.22;;;18.70;1.00;;;;;;4994726;28;20088;-44
2022/07/26 09:53:39;;;;;;;9.60;1.83;;;18.70;1.00;;;;;;4998655;28;21030;-46
2022/07/26 09:56:05;;;;;;;15.55;2.08;;;18.70;1.00;;;;;;4993121;28;20041;-46
2022/07/26 09:58:32;;;;;;;10.75;1.80;;;18.60;1.00;;;;;;4995713;28;20057;-45
2022/07/26 10:00:58;;;;;;;11.93;1.80;;;19.80;1.00;;;;;;4993608;28;20069;-48
2022/07/26 10:03:23;;;;;;;8.43;1.70;;;20.90;1.00;;;;;;4993745;28;20490;-43
2022/07/26 10:05:49;;;;;;;12.07;2.15;;;18.80;1.00;;;;;;4976917;28;20050;-44
2022/07/26 10:08:17;;;;;;;9.55;2.33;;;19.60;1.00;;;;;;4996813;28;20938;-45
2022/07/26 10:10:54;;;;;;;8.88;1.65;;;18.70;1.00;;;;;;4994021;28;20038;-44
2022/07/26 10:13:21;;;;;;;8.02;1.90;;;19.00;99.90;;;;;;4994620;28;20402;-44
2022/07/26 10:15:50;;;;;;;10.75;1.70;;;19.20;99.90;;;;;;4995836;28;20088;-44
2022/07/26 10:18:43;;;;;;;12.18;2.10;;;21.30;99.90;;;;;;5000210;28;20124;-43
2022/07/26 10:21:29;;;;;;;10.30;1.52;;;19.40;99.90;;;;;;4992209;28;20630;-47
2022/07/26 10:24:00;;;;;;;11.20;1.77;;;19.60;99.90;;;;;;4993896;28;20046;-47
2022/07/26 10:26:32;;;;;;;7.97;1.65;;;19.80;99.90;;;;;;4979552;28;20077;-43
2022/07/26 10:29:16;;;;;;;;;;;19.90;99.90;;;;;;4996610;28;20046;-47
2022/07/26 10:31:48;;;;;;;10.90;1.60;;;19.90;1.00;;;;;;4995792;28;20429;-46
2022/07/26 10:34:37;;;;;;;13.93;1.90;;;20.40;1.00;;;;;;4995643;28;20054;-43
2022/07/26 10:37:05;;;;;;;10.25;2.10;;;20.90;99.90;;;;;;4995620;28;20052;-44
2022/07/26 10:39:31;;;;;;;6.05;1.45;;;20.90;99.90;;;;;;4995307;28;21352;-45
2022/07/26 10:42:01;;;;;;;7.05;1.35;;;21.30;60.40;;;;;;4997526;28;20678;-46
2022/07/26 10:44:29;;;;;;;6.55;1.65;;;21.40;1.00;;;;;;4993622;28;20053;-44
2022/07/26 10:47:11;;;;;;;7.95;1.30;;;21.50;1.00;;;;;;4994661;28;20076;-46
2022/07/26 10:49:57;;;;;;;8.55;1.55;;;20.90;99.90;;;;;;5000843;28;20901;-43
2022/07/26 10:52:31;;;;;;;11.45;1.40;;;21.10;95.40;;;;;;4999934;28;20411;-45
2022/07/26 10:54:59;;;;;;;7.47;1.45;;;20.80;99.90;;;;;;4995386;28;20096;-47
2022/07/26 10:57:35;;;;;;;6.10;1.40;;;20.90;99.90;;;;;;4998085;28;20125;-43
2022/07/26 11:00:06;;;;;;;7.18;1.35;;;21.10;99.90;;;;;;4994915;28;20050;-44
2022/07/26 11:02:32;;;;;;;6.03;1.27;;;21.30;3.10;;;;;;4994815;28;20076;-47
2022/07/26 11:05:11;;;;;;;5.65;1.02;;;20.80;1.00;;;;;;4995471;28;20037;-44
2022/07/26 11:08:03;;;;;;;6.88;1.08;;;20.70;1.00;;;;;;4994230;28;20068;-44
2022/07/26 11:10:40;;;;;;;7.82;1.42;;;22.60;1.00;;;;;;4997373;28;20045;-45
2022/07/26 11:13:08;;;;;;;6.45;1.60;;;20.70;1.00;;;;;;4996902;28;20062;-43
2022/07/26 11:15:36;;;;;;;6.25;1.20;;;20.80;1.00;;;;;;4997274;28;20250;-44
2022/07/26 11:18:06;;;;;;;8.88;1.17;;;20.60;1.00;;;;;;4997706;28;20041;-44
2022/07/26 11:20:32;;;;;;;6.15;1.67;;;21.00;1.00;;;;;;4995656;28;20042;-43
2022/07/26 11:23:00;;;;;;;7.90;1.30;;;21.60;1.00;;;;;;4996902;28;20073;-43
2022/07/26 11:25:25;;;;;;;9.00;1.27;;;21.60;1.00;;;;;;4994784;28;20209;-45
2022/07/26 11:28:09;;;;;;;8.73;1.50;;;21.50;1.00;;;;;;4980610;28;20053;-45
2022/07/26 11:30:35;;;;;;;7.97;1.30;;;21.60;99.90;;;;;;4996066;28;20045;-43
2022/07/26 11:33:01;;;;;;;6.50;1.23;;;20.90;99.90;;;;;;4995357;28;20058;-48
2022/07/26 11:35:26;;;;;;;7.05;1.33;;;20.80;1.00;;;;;;4997671;28;21085;-43
2022/07/26 11:37:57;;;;;;;7.88;1.10;;;20.60;99.90;;;;;;4996624;28;20040;-42
2022/07/26 11:40:43;;;;;;;7.05;1.40;;;21.70;99.90;;;;;;4999739;28;20553;-44
2022/07/26 11:43:09;;;;;;;5.65;1.10;;;20.20;1.00;;;;;;5000227;28;20573;-45
2022/07/26 11:45:35;;;;;;;6.70;1.35;;;21.40;99.90;;;;;;4996060;28;20073;-42
2022/07/26 11:48:01;;;;;;;8.90;1.25;;;20.30;1.00;;;;;;4995142;28;20129;-43
2022/07/26 11:50:27;;;;;;;11.80;1.30;;;20.30;1.00;;;;;;4995332;28;20507;-44
2022/07/26 11:52:53;;;;;;;6.80;1.38;;;20.40;1.00;;;;;;4997024;28;20121;-44
2022/07/26 11:55:28;;;;;;;6.68;1.52;;;20.30;1.00;;;;;;4976621;28;20503;-43
2022/07/26 11:57:54;;;;;;;7.65;1.42;;;20.40;1.00;;;;;;4977712;28;20511;-45
2022/07/26 12:00:22;;;;;;;7.00;1.40;;;21.10;1.00;;;;;;4994903;28;20120;-44
2022/07/26 12:02:47;;;;;;;5.75;1.20;;;20.60;1.00;;;;;;4995705;28;20540;-44
2022/07/26 12:05:23;;;;;;;8.07;1.38;;;20.40;1.00;;;;;;4995462;28;20041;-43
2022/07/26 12:07:52;;;;;;;5.07;1.25;;;20.50;1.00;;;;;;4996919;28;20222;-42
2022/07/26 12:10:18;;;;;;;10.50;1.33;;;20.70;1.00;;;;;;4960416;28;20042;-45
2022/07/26 12:12:44;;;;;;;9.65;1.27;;;20.80;1.00;;;;;;4994470;28;20384;-43
2022/07/26 12:15:11;;;;;;;9.77;1.23;;;20.80;1.00;;;;;;4993476;28;20053;-47
2022/07/26 12:17:37;;;;;;;5.95;1.40;;;20.70;1.00;;;;;;4993416;28;20594;-45
2022/07/26 12:20:15;;;;;;;8.27;1.73;;;20.70;1.00;;;;;;4976377;28;20141;-44
2022/07/26 12:22:54;;;;;;;8.30;1.45;;;20.70;1.00;;;;;;4993409;28;20056;-45
2022/07/26 12:25:28;;;;;;;5.35;1.10;;;21.20;99.90;;;;;;4993425;28;20045;-45
2022/07/26 12:27:53;;;;;;;8.88;1.35;;;20.30;99.90;;;;;;4979471;28;20041;-43
2022/07/26 12:30:20;;;;;;;7.10;1.80;;;20.50;1.00;;;;;;4993497;28;20053;-47
2022/07/26 12:32:54;;;;;;;4.80;1.00;;;21.80;1.00;;;;;;4994655;28;20057;-45
2022/07/26 12:35:39;;;;;;;9.70;1.75;;;20.40;1.00;;;;;;4961057;28;20053;-44
2022/07/26 12:38:05;;;;;;;7.07;1.50;;;22.60;1.00;;;;;;4994335;28;20115;-44
2022/07/26 12:40:40;;;;;;;6.97;1.77;;;20.30;1.00;;;;;;4981529;28;20140;-48
2022/07/26 12:43:06;;;;;;;7.85;1.60;;;23.00;1.00;;;;;;4993835;28;20046;-46
2022/07/26 12:45:33;;;;;;;5.55;1.10;;;20.90;1.00;;;;;;4992978;28;20061;-43
2022/07/26 12:48:02;;;;;;;6.97;1.30;;;20.50;1.00;;;;;;4993936;28;20042;-44
2022/07/26 12:50:30;;;;;;;8.43;1.33;;;22.70;1.00;;;;;;4999421;28;20065;-45